sensor_id;sensor_type;location;lat;lon;timestamp;pressure;altitude;pressure_sealevel;temperature;humidity
80184;BME280;69682;52.138;5.440;2024-03-02T00:00:31;99826.22;;;8.08;72.84
80184;BME280;69682;52.138;5.440;2024-03-02T00:02:58;99834.31;;;8.06;73.58
80184;BME280;69682;52.138;5.440;2024-03-02T00:05:24;99830.53;;;8.09;73.48
80184;BME280;69682;52.138;5.440;2024-03-02T00:07:55;99828.88;;;8.08;73.28
80184;BME280;69682;52.138;5.440;2024-03-02T00:10:25;99830.44;;;8.10;72.83
80184;BME280;69682;52.138;5.440;2024-03-02T00:12:57;99827.53;;;8.13;72.74
80184;BME280;69682;52.138;5.440;2024-03-02T00:15:48;99839.81;;;8.14;72.80
80184;BME280;69682;52.138;5.440;2024-03-02T00:18:30;99847.34;;;8.09;73.58
80184;BME280;69682;52.138;5.440;2024-03-02T00:20:58;99850.06;;;8.19;72.89
80184;BME280;69682;52.138;5.440;2024-03-02T00:23:27;99863.31;;;8.19;73.50
80184;BME280;69682;52.138;5.440;2024-03-02T00:25:55;99862.50;;;8.18;73.67
80184;BME280;69682;52.138;5.440;2024-03-02T00:28:27;99878.28;;;8.20;73.21
80184;BME280;69682;52.138;5.440;2024-03-02T00:30:59;99879.09;;;8.20;73.23
80184;BME280;69682;52.138;5.440;2024-03-02T00:33:36;99892.50;;;8.19;73.21
80184;BME280;69682;52.138;5.440;2024-03-02T00:36:04;99895.41;;;8.16;73.83
80184;BME280;69682;52.138;5.440;2024-03-02T00:38:31;99912.19;;;8.16;73.77
80184;BME280;69682;52.138;5.440;2024-03-02T00:40:59;99902.03;;;8.22;73.32
80184;BME280;69682;52.138;5.440;2024-03-02T00:46:02;99935.56;;;8.23;73.21
80184;BME280;69682;52.138;5.440;2024-03-02T00:48:29;99948.97;;;8.21;73.71
80184;BME280;69682;52.138;5.440;2024-03-02T00:50:57;99944.16;;;8.15;74.22
80184;BME280;69682;52.138;5.440;2024-03-02T00:53:26;99938.38;;;8.10;75.03
80184;BME280;69682;52.138;5.440;2024-03-02T00:55:53;99953.06;;;8.03;75.16
80184;BME280;69682;52.138;5.440;2024-03-02T00:58:19;99935.25;;;7.93;75.70
80184;BME280;69682;52.138;5.440;2024-03-02T01:00:46;99946.22;;;7.89;76.33
80184;BME280;69682;52.138;5.440;2024-03-02T01:03:13;99952.38;;;7.78;77.20
80184;BME280;69682;52.138;5.440;2024-03-02T01:05:42;99948.63;;;7.69;77.10
80184;BME280;69682;52.138;5.440;2024-03-02T01:08:10;99950.94;;;7.63;77.71
80184;BME280;69682;52.138;5.440;2024-03-02T01:10:37;99951.41;;;7.57;78.00
80184;BME280;69682;52.138;5.440;2024-03-02T01:13:04;99951.75;;;7.52;78.03
80184;BME280;69682;52.138;5.440;2024-03-02T01:15:31;99958.38;;;7.46;78.31
80184;BME280;69682;52.138;5.440;2024-03-02T01:17:58;99957.03;;;7.41;79.66
80184;BME280;69682;52.138;5.440;2024-03-02T01:20:24;99958.16;;;7.38;79.33
80184;BME280;69682;52.138;5.440;2024-03-02T01:22:51;99941.16;;;7.30;79.16
80184;BME280;69682;52.138;5.440;2024-03-02T01:25:18;99947.03;;;7.22;80.02
80184;BME280;69682;52.138;5.440;2024-03-02T01:27:45;99963.50;;;7.14;80.15
80184;BME280;69682;52.138;5.440;2024-03-02T01:30:15;99963.13;;;7.08;81.06
80184;BME280;69682;52.138;5.440;2024-03-02T01:32:42;99972.03;;;7.07;80.99
80184;BME280;69682;52.138;5.440;2024-03-02T01:35:09;99970.56;;;7.02;81.24
80184;BME280;69682;52.138;5.440;2024-03-02T01:37:36;99969.94;;;6.99;82.05
80184;BME280;69682;52.138;5.440;2024-03-02T01:40:03;99961.41;;;6.95;81.88
80184;BME280;69682;52.138;5.440;2024-03-02T01:42:39;99968.75;;;6.92;82.12
80184;BME280;69682;52.138;5.440;2024-03-02T01:45:06;99958.25;;;6.90;81.84
80184;BME280;69682;52.138;5.440;2024-03-02T01:47:36;99967.38;;;6.86;82.53
80184;BME280;69682;52.138;5.440;2024-03-02T01:50:03;99969.19;;;6.86;82.93
80184;BME280;69682;52.138;5.440;2024-03-02T01:52:29;99975.56;;;6.83;82.78
80184;BME280;69682;52.138;5.440;2024-03-02T01:54:56;99966.03;;;6.80;82.73
80184;BME280;69682;52.138;5.440;2024-03-02T01:57:23;99965.31;;;6.78;83.05
80184;BME280;69682;52.138;5.440;2024-03-02T01:59:50;99967.13;;;6.78;83.50
80184;BME280;69682;52.138;5.440;2024-03-02T02:02:17;99967.22;;;6.76;83.33
80184;BME280;69682;52.138;5.440;2024-03-02T02:04:44;99960.38;;;6.74;83.81
80184;BME280;69682;52.138;5.440;2024-03-02T02:07:11;99970.97;;;6.74;83.95
80184;BME280;69682;52.138;5.440;2024-03-02T02:09:38;99963.94;;;6.73;84.65
80184;BME280;69682;52.138;5.440;2024-03-02T02:12:04;99963.34;;;6.69;84.26
80184;BME280;69682;52.138;5.440;2024-03-02T02:14:33;99968.75;;;6.68;84.32
80184;BME280;69682;52.138;5.440;2024-03-02T02:17:00;99975.84;;;6.67;84.21
80184;BME280;69682;52.138;5.440;2024-03-02T02:19:26;99980.41;;;6.65;84.84
80184;BME280;69682;52.138;5.440;2024-03-02T02:21:53;99975.44;;;6.60;85.05
80184;BME280;69682;52.138;5.440;2024-03-02T02:24:20;99977.34;;;6.58;85.65
80184;BME280;69682;52.138;5.440;2024-03-02T02:26:46;99973.16;;;6.56;85.13
80184;BME280;69682;52.138;5.440;2024-03-02T02:29:13;99969.88;;;6.52;85.54
80184;BME280;69682;52.138;5.440;2024-03-02T02:31:41;99960.72;;;6.45;86.26
80184;BME280;69682;52.138;5.440;2024-03-02T02:34:08;99960.94;;;6.42;86.59
80184;BME280;69682;52.138;5.440;2024-03-02T02:36:38;99965.59;;;6.39;88.04
80184;BME280;69682;52.138;5.440;2024-03-02T02:39:08;99965.84;;;6.35;87.42
80184;BME280;69682;52.138;5.440;2024-03-02T02:41:37;99978.41;;;6.32;87.29
80184;BME280;69682;52.138;5.440;2024-03-02T02:44:04;99984.91;;;6.28;88.17
80184;BME280;69682;52.138;5.440;2024-03-02T02:46:31;99981.50;;;6.26;87.92
80184;BME280;69682;52.138;5.440;2024-03-02T02:48:58;99980.78;;;6.24;88.42
80184;BME280;69682;52.138;5.440;2024-03-02T02:51:24;99986.09;;;6.24;88.32
80184;BME280;69682;52.138;5.440;2024-03-02T02:53:52;99980.88;;;6.22;88.68
80184;BME280;69682;52.138;5.440;2024-03-02T02:56:18;99983.75;;;6.19;88.47
80184;BME280;69682;52.138;5.440;2024-03-02T02:58:44;99983.97;;;6.16;88.64
80184;BME280;69682;52.138;5.440;2024-03-02T03:01:11;99995.53;;;6.15;88.60
80184;BME280;69682;52.138;5.440;2024-03-02T03:03:38;99991.28;;;6.12;88.44
80184;BME280;69682;52.138;5.440;2024-03-02T03:06:04;99994.03;;;6.11;88.11
80184;BME280;69682;52.138;5.440;2024-03-02T03:08:31;99988.88;;;6.09;88.57
80184;BME280;69682;52.138;5.440;2024-03-02T03:10:58;99984.41;;;6.10;88.85
80184;BME280;69682;52.138;5.440;2024-03-02T03:13:24;99984.50;;;6.08;89.12
80184;BME280;69682;52.138;5.440;2024-03-02T03:15:51;99988.22;;;6.06;89.20
80184;BME280;69682;52.138;5.440;2024-03-02T03:18:18;99983.88;;;6.05;89.01
80184;BME280;69682;52.138;5.440;2024-03-02T03:20:45;99987.59;;;6.02;89.00
80184;BME280;69682;52.138;5.440;2024-03-02T03:23:11;99987.72;;;6.01;89.75
80184;BME280;69682;52.138;5.440;2024-03-02T03:25:41;99987.72;;;6.01;89.21
80184;BME280;69682;52.138;5.440;2024-03-02T03:28:08;99991.41;;;5.98;89.12
80184;BME280;69682;52.138;5.440;2024-03-02T03:30:39;99996.81;;;5.97;88.74
80184;BME280;69682;52.138;5.440;2024-03-02T03:33:06;99999.34;;;5.98;89.04
80184;BME280;69682;52.138;5.440;2024-03-02T03:35:33;100004.84;;;5.95;88.40
80184;BME280;69682;52.138;5.440;2024-03-02T03:37:59;100000.50;;;5.94;88.00
80184;BME280;69682;52.138;5.440;2024-03-02T03:40:26;100001.47;;;5.93;88.36
80184;BME280;69682;52.138;5.440;2024-03-02T03:42:52;100001.56;;;5.91;88.59
80184;BME280;69682;52.138;5.440;2024-03-02T03:45:19;100002.50;;;5.90;88.92
80184;BME280;69682;52.138;5.440;2024-03-02T03:47:47;100006.09;;;5.89;88.40
80184;BME280;69682;52.138;5.440;2024-03-02T03:50:14;100000.81;;;5.89;88.61
80184;BME280;69682;52.138;5.440;2024-03-02T03:52:40;100015.00;;;5.88;88.80
80184;BME280;69682;52.138;5.440;2024-03-02T03:55:07;100010.53;;;5.89;88.62
80184;BME280;69682;52.138;5.440;2024-03-02T03:57:34;100023.53;;;5.92;88.59
80184;BME280;69682;52.138;5.440;2024-03-02T04:00:01;100011.16;;;5.92;88.68
80184;BME280;69682;52.138;5.440;2024-03-02T04:02:28;100013.63;;;5.96;88.32
80184;BME280;69682;52.138;5.440;2024-03-02T04:04:55;100005.47;;;5.99;88.17
80184;BME280;69682;52.138;5.440;2024-03-02T04:07:21;100005.47;;;5.99;88.46
80184;BME280;69682;52.138;5.440;2024-03-02T04:09:48;100010.69;;;6.00;88.54
80184;BME280;69682;52.138;5.440;2024-03-02T04:12:14;100008.75;;;6.02;88.43
80184;BME280;69682;52.138;5.440;2024-03-02T04:14:41;100020.06;;;6.04;88.32
80184;BME280;69682;52.138;5.440;2024-03-02T04:17:09;100023.56;;;6.05;88.22
80184;BME280;69682;52.138;5.440;2024-03-02T04:19:36;100025.22;;;6.06;87.91
80184;BME280;69682;52.138;5.440;2024-03-02T04:22:02;100025.22;;;6.06;88.58
80184;BME280;69682;52.138;5.440;2024-03-02T04:24:43;100026.94;;;6.07;88.17
80184;BME280;69682;52.138;5.440;2024-03-02T04:27:10;100029.47;;;6.08;88.27
80184;BME280;69682;52.138;5.440;2024-03-02T04:29:36;100029.59;;;6.07;88.11
80184;BME280;69682;52.138;5.440;2024-03-02T04:32:03;100027.78;;;6.07;88.26
80184;BME280;69682;52.138;5.440;2024-03-02T04:34:30;100028.53;;;6.09;88.15
80184;BME280;69682;52.138;5.440;2024-03-02T04:36:56;100035.50;;;6.10;88.11
80184;BME280;69682;52.138;5.440;2024-03-02T04:39:23;100032.84;;;6.10;87.96
80184;BME280;69682;52.138;5.440;2024-03-02T04:41:51;100045.97;;;6.12;88.01
80184;BME280;69682;52.138;5.440;2024-03-02T04:44:17;100038.97;;;6.11;88.26
80184;BME280;69682;52.138;5.440;2024-03-02T04:46:44;100045.97;;;6.12;87.69
80184;BME280;69682;52.138;5.440;2024-03-02T04:49:10;100043.34;;;6.12;87.52
80184;BME280;69682;52.138;5.440;2024-03-02T04:51:37;100048.63;;;6.12;88.14
80184;BME280;69682;52.138;5.440;2024-03-02T04:54:04;100054.84;;;6.11;87.40
80184;BME280;69682;52.138;5.440;2024-03-02T04:56:30;100052.94;;;6.13;87.82
80184;BME280;69682;52.138;5.440;2024-03-02T04:58:57;100062.47;;;6.16;87.63
80184;BME280;69682;52.138;5.440;2024-03-02T05:01:23;100066.06;;;6.14;87.11
80184;BME280;69682;52.138;5.440;2024-03-02T05:03:50;100062.56;;;6.14;87.11
80184;BME280;69682;52.138;5.440;2024-03-02T05:06:17;100055.59;;;6.13;86.88
80184;BME280;69682;52.138;5.440;2024-03-02T05:08:43;100059.22;;;6.12;87.21
80184;BME280;69682;52.138;5.440;2024-03-02T05:11:11;100065.34;;;6.12;87.10
80184;BME280;69682;52.138;5.440;2024-03-02T05:13:56;100061.94;;;6.10;87.50
80184;BME280;69682;52.138;5.440;2024-03-02T05:16:23;100063.75;;;6.10;87.16
80184;BME280;69682;52.138;5.440;2024-03-02T05:18:49;100067.22;;;6.10;87.09
80184;BME280;69682;52.138;5.440;2024-03-02T05:21:16;100066.19;;;6.13;86.80
80184;BME280;69682;52.138;5.440;2024-03-02T05:23:42;100073.28;;;6.12;86.44
80184;BME280;69682;52.138;5.440;2024-03-02T05:26:10;100072.31;;;6.13;86.04
80184;BME280;69682;52.138;5.440;2024-03-02T05:28:39;100068.81;;;6.13;85.68
80184;BME280;69682;52.138;5.440;2024-03-02T05:31:05;100073.16;;;6.14;85.50
80184;BME280;69682;52.138;5.440;2024-03-02T05:33:33;100071.34;;;6.14;85.93
80184;BME280;69682;52.138;5.440;2024-03-02T05:36:00;100071.13;;;6.18;85.44
80184;BME280;69682;52.138;5.440;2024-03-02T05:38:28;100074.84;;;6.15;85.13
80184;BME280;69682;52.138;5.440;2024-03-02T05:40:57;100070.50;;;6.14;85.38
80184;BME280;69682;52.138;5.440;2024-03-02T05:43:24;100064.38;;;6.13;84.65
80184;BME280;69682;52.138;5.440;2024-03-02T05:45:51;100068.19;;;6.09;85.17
80184;BME280;69682;52.138;5.440;2024-03-02T05:48:17;100070.94;;;6.08;84.74
80184;BME280;69682;52.138;5.440;2024-03-02T05:50:44;100072.81;;;6.06;84.62
80184;BME280;69682;52.138;5.440;2024-03-02T05:53:10;100067.53;;;6.06;84.48
80184;BME280;69682;52.138;5.440;2024-03-02T05:55:39;100078.25;;;6.04;83.21
80184;BME280;69682;52.138;5.440;2024-03-02T05:58:06;100080.97;;;6.03;82.99
80184;BME280;69682;52.138;5.440;2024-03-02T06:00:33;100087.22;;;6.02;83.46
80184;BME280;69682;52.138;5.440;2024-03-02T06:03:00;100085.56;;;6.01;83.29
80184;BME280;69682;52.138;5.440;2024-03-02T06:05:27;100090.00;;;6.00;83.64
80184;BME280;69682;52.138;5.440;2024-03-02T06:07:53;100087.22;;;6.02;83.05
80184;BME280;69682;52.138;5.440;2024-03-02T06:10:21;100088.19;;;6.01;83.27
80184;BME280;69682;52.138;5.440;2024-03-02T06:12:47;100088.28;;;5.99;83.28
80184;BME280;69682;52.138;5.440;2024-03-02T06:15:14;100105.09;;;5.98;83.57
80184;BME280;69682;52.138;5.440;2024-03-02T06:17:40;100102.69;;;5.95;83.78
80184;BME280;69682;52.138;5.440;2024-03-02T06:20:07;100097.28;;;5.97;83.62
80184;BME280;69682;52.138;5.440;2024-03-02T06:22:35;100105.41;;;5.94;84.04
80184;BME280;69682;52.138;5.440;2024-03-02T06:25:04;100110.69;;;5.94;83.85
80184;BME280;69682;52.138;5.440;2024-03-02T06:27:31;100111.63;;;5.92;84.36
80184;BME280;69682;52.138;5.440;2024-03-02T06:29:58;100114.47;;;5.89;83.96
80184;BME280;69682;52.138;5.440;2024-03-02T06:32:24;100118.19;;;5.87;84.13
80184;BME280;69682;52.138;5.440;2024-03-02T06:34:51;100113.94;;;5.84;84.19
80184;BME280;69682;52.138;5.440;2024-03-02T06:37:18;100130.66;;;5.85;84.87
80184;BME280;69682;52.138;5.440;2024-03-02T06:39:44;100122.00;;;5.83;84.90
80184;BME280;69682;52.138;5.440;2024-03-02T06:42:11;100123.88;;;5.81;84.50
80184;BME280;69682;52.138;5.440;2024-03-02T06:44:38;100126.53;;;5.81;85.20
80184;BME280;69682;52.138;5.440;2024-03-02T06:47:04;100136.34;;;5.79;85.00
80184;BME280;69682;52.138;5.440;2024-03-02T06:49:31;100126.63;;;5.79;84.62
80184;BME280;69682;52.138;5.440;2024-03-02T06:51:57;100121.25;;;5.81;85.36
80184;BME280;69682;52.138;5.440;2024-03-02T06:54:24;100124.63;;;5.83;85.17
80184;BME280;69682;52.138;5.440;2024-03-02T06:56:51;100127.91;;;5.86;84.49
80184;BME280;69682;52.138;5.440;2024-03-02T06:59:17;100126.88;;;5.89;84.42
80184;BME280;69682;52.138;5.440;2024-03-02T07:01:44;100124.22;;;5.89;84.92
80184;BME280;69682;52.138;5.440;2024-03-02T07:04:10;100124.09;;;5.90;84.98
80184;BME280;69682;52.138;5.440;2024-03-02T07:06:39;100121.44;;;5.90;84.80
80184;BME280;69682;52.138;5.440;2024-03-02T07:09:06;100124.94;;;5.91;84.30
80184;BME280;69682;52.138;5.440;2024-03-02T07:11:37;100131.94;;;5.92;84.28
80184;BME280;69682;52.138;5.440;2024-03-02T07:14:04;100128.44;;;5.91;84.76
80184;BME280;69682;52.138;5.440;2024-03-02T07:16:30;100123.91;;;5.94;84.37
80184;BME280;69682;52.138;5.440;2024-03-02T07:19:00;100124.75;;;5.94;84.01
80184;BME280;69682;52.138;5.440;2024-03-02T07:21:28;100124.66;;;5.96;84.13
80184;BME280;69682;52.138;5.440;2024-03-02T07:23:55;100129.00;;;5.97;83.79
80184;BME280;69682;52.138;5.440;2024-03-02T07:26:21;100126.06;;;6.01;84.29
80184;BME280;69682;52.138;5.440;2024-03-02T07:28:52;100131.97;;;6.05;83.56
80184;BME280;69682;52.138;5.440;2024-03-02T07:31:18;100136.19;;;6.07;83.30
80184;BME280;69682;52.138;5.440;2024-03-02T07:33:45;100133.34;;;6.10;83.78
80184;BME280;69682;52.138;5.440;2024-03-02T07:36:13;100145.41;;;6.14;83.18
80184;BME280;69682;52.138;5.440;2024-03-02T07:38:40;100137.38;;;6.16;83.50
80184;BME280;69682;52.138;5.440;2024-03-02T07:41:08;100146.91;;;6.19;83.37
80184;BME280;69682;52.138;5.440;2024-03-02T07:43:35;100150.16;;;6.22;83.03
80184;BME280;69682;52.138;5.440;2024-03-02T07:46:01;100140.13;;;6.27;83.83
80184;BME280;69682;52.138;5.440;2024-03-02T07:48:29;100142.56;;;6.30;83.41
80184;BME280;69682;52.138;5.440;2024-03-02T07:50:57;100145.72;;;6.35;83.02
80184;BME280;69682;52.138;5.440;2024-03-02T07:53:23;100154.28;;;6.39;83.20
80184;BME280;69682;52.138;5.440;2024-03-02T07:55:50;100155.97;;;6.40;83.12
80184;BME280;69682;52.138;5.440;2024-03-02T07:58:16;100154.28;;;6.39;83.65
80184;BME280;69682;52.138;5.440;2024-03-02T08:00:54;100155.00;;;6.41;83.31
80184;BME280;69682;52.138;5.440;2024-03-02T08:03:21;100155.00;;;6.41;83.21
80184;BME280;69682;52.138;5.440;2024-03-02T08:05:48;100162.84;;;6.43;82.76
80184;BME280;69682;52.138;5.440;2024-03-02T08:08:14;100162.00;;;6.42;82.91
80184;BME280;69682;52.138;5.440;2024-03-02T08:10:41;100171.53;;;6.45;82.46
80184;BME280;69682;52.138;5.440;2024-03-02T08:13:07;100178.81;;;6.41;83.39
80184;BME280;69682;52.138;5.440;2024-03-02T08:15:34;100175.47;;;6.39;82.62
80184;BME280;69682;52.138;5.440;2024-03-02T08:18:01;100177.13;;;6.40;82.47
80184;BME280;69682;52.138;5.440;2024-03-02T08:20:27;100171.84;;;6.40;82.71
80184;BME280;69682;52.138;5.440;2024-03-02T08:22:54;100185.06;;;6.40;82.79
80184;BME280;69682;52.138;5.440;2024-03-02T08:25:21;100178.94;;;6.40;82.78
80184;BME280;69682;52.138;5.440;2024-03-02T08:27:49;100165.59;;;6.41;82.72
80184;BME280;69682;52.138;5.440;2024-03-02T08:30:15;100164.53;;;6.44;82.54
80184;BME280;69682;52.138;5.440;2024-03-02T08:32:42;100170.28;;;6.50;82.88
80184;BME280;69682;52.138;5.440;2024-03-02T08:35:09;100169.63;;;6.59;82.11
80184;BME280;69682;52.138;5.440;2024-03-02T08:37:39;100169.41;;;6.63;82.77
80184;BME280;69682;52.138;5.440;2024-03-02T08:40:07;100170.56;;;6.71;82.15
80184;BME280;69682;52.138;5.440;2024-03-02T08:42:34;100174.66;;;6.75;82.51
80184;BME280;69682;52.138;5.440;2024-03-02T08:45:01;100177.63;;;6.83;81.74
80184;BME280;69682;52.138;5.440;2024-03-02T08:47:28;100184.06;;;6.92;81.57
80184;BME280;69682;52.138;5.440;2024-03-02T08:49:54;100184.81;;;6.94;80.54
80184;BME280;69682;52.138;5.440;2024-03-02T08:52:23;100182.88;;;6.96;81.35
80184;BME280;69682;52.138;5.440;2024-03-02T08:54:50;100170.16;;;7.01;81.08
80184;BME280;69682;52.138;5.440;2024-03-02T08:57:17;100177.78;;;7.06;80.39
80184;BME280;69682;52.138;5.440;2024-03-02T08:59:44;100173.19;;;7.08;80.43
80184;BME280;69682;52.138;5.440;2024-03-02T09:02:11;100173.81;;;7.12;80.76
80184;BME280;69682;52.138;5.440;2024-03-02T09:04:37;100177.00;;;7.17;80.81
80184;BME280;69682;52.138;5.440;2024-03-02T09:07:04;100173.06;;;7.22;79.45
80184;BME280;69682;52.138;5.440;2024-03-02T09:09:31;100177.19;;;7.26;79.48
80184;BME280;69682;52.138;5.440;2024-03-02T09:11:58;100178.19;;;7.37;79.40
80184;BME280;69682;52.138;5.440;2024-03-02T09:14:25;100177.88;;;7.41;79.15
80184;BME280;69682;52.138;5.440;2024-03-02T09:16:51;100175.69;;;7.46;79.19
80184;BME280;69682;52.138;5.440;2024-03-02T09:19:18;100176.53;;;7.47;78.42
80184;BME280;69682;52.138;5.440;2024-03-02T09:21:48;100186.34;;;7.58;78.74
80184;BME280;69682;52.138;5.440;2024-03-02T09:24:17;100180.22;;;7.57;77.85
80184;BME280;69682;52.138;5.440;2024-03-02T09:26:44;100184.44;;;7.60;77.13
80184;BME280;69682;52.138;5.440;2024-03-02T09:29:10;100188.69;;;7.62;77.63
80184;BME280;69682;52.138;5.440;2024-03-02T09:31:41;100183.53;;;7.72;77.36
80184;BME280;69682;52.138;5.440;2024-03-02T09:34:07;100183.34;;;7.86;76.70
80184;BME280;69682;52.138;5.440;2024-03-02T09:36:34;100185.88;;;7.88;76.69
80184;BME280;69682;52.138;5.440;2024-03-02T09:39:01;100182.03;;;7.92;76.40
80184;BME280;69682;52.138;5.440;2024-03-02T09:41:30;100177.38;;;8.07;75.64
80184;BME280;69682;52.138;5.440;2024-03-02T09:43:57;100189.44;;;8.11;74.62
80184;BME280;69682;52.138;5.440;2024-03-02T09:46:24;100194.63;;;8.12;75.09
80184;BME280;69682;52.138;5.440;2024-03-02T09:48:51;100187.28;;;8.16;74.15
80184;BME280;69682;52.138;5.440;2024-03-02T09:51:19;100191.13;;;8.23;73.91
80184;BME280;69682;52.138;5.440;2024-03-02T09:53:47;100190.41;;;8.32;72.94
80184;BME280;69682;52.138;5.440;2024-03-02T09:56:14;100186.38;;;8.39;72.52
80184;BME280;69682;52.138;5.440;2024-03-02T09:58:42;100190.59;;;8.42;72.64
80184;BME280;69682;52.138;5.440;2024-03-02T10:01:10;100193.97;;;8.44;73.22
80184;BME280;69682;52.138;5.440;2024-03-02T10:03:37;100198.94;;;8.49;70.38
80184;BME280;69682;52.138;5.440;2024-03-02T10:06:23;100184.09;;;8.46;70.63
80184;BME280;69682;52.138;5.440;2024-03-02T10:08:51;100187.00;;;8.54;71.00
80184;BME280;69682;52.138;5.440;2024-03-02T10:11:31;100188.44;;;8.58;70.06
80184;BME280;69682;52.138;5.440;2024-03-02T10:14:09;100185.66;;;8.60;69.63
80184;BME280;69682;52.138;5.440;2024-03-02T10:16:38;100188.69;;;8.67;68.58
80184;BME280;69682;52.138;5.440;2024-03-02T10:19:19;100180.38;;;8.71;68.07
80184;BME280;69682;52.138;5.440;2024-03-02T10:21:50;100177.09;;;8.79;68.86
80184;BME280;69682;52.138;5.440;2024-03-02T10:24:22;100184.22;;;8.90;69.74
80184;BME280;69682;52.138;5.440;2024-03-02T10:26:49;100180.81;;;8.99;69.31
80184;BME280;69682;52.138;5.440;2024-03-02T10:29:17;100182.25;;;9.03;69.17
80184;BME280;69682;52.138;5.440;2024-03-02T10:31:45;100184.78;;;9.16;68.97
80184;BME280;69682;52.138;5.440;2024-03-02T10:34:13;100184.19;;;9.12;68.35
80184;BME280;69682;52.138;5.440;2024-03-02T10:36:41;100182.22;;;9.14;68.21
80184;BME280;69682;52.138;5.440;2024-03-02T10:39:09;100175.47;;;9.21;68.31
80184;BME280;69682;52.138;5.440;2024-03-02T10:41:37;100172.41;;;9.37;67.25
80184;BME280;69682;52.138;5.440;2024-03-02T10:44:06;100165.22;;;9.49;67.49
80184;BME280;69682;52.138;5.440;2024-03-02T10:46:36;100166.69;;;9.53;66.33
80184;BME280;69682;52.138;5.440;2024-03-02T10:49:04;100167.25;;;9.57;66.52
80184;BME280;69682;52.138;5.440;2024-03-02T10:51:34;100160.78;;;9.70;66.46
80184;BME280;69682;52.138;5.440;2024-03-02T10:54:04;100146.72;;;9.80;65.65
80184;BME280;69682;52.138;5.440;2024-03-02T10:56:39;100156.25;;;9.82;65.81
80184;BME280;69682;52.138;5.440;2024-03-02T10:59:26;100148.72;;;9.87;66.04
80184;BME280;69682;52.138;5.440;2024-03-02T11:01:58;100138.91;;;9.88;64.86
80184;BME280;69682;52.138;5.440;2024-03-02T11:04:31;100143.88;;;9.92;64.89
80184;BME280;69682;52.138;5.440;2024-03-02T11:07:07;100143.22;;;10.00;64.60
80184;BME280;69682;52.138;5.440;2024-03-02T11:09:37;100144.13;;;10.10;64.46
80184;BME280;69682;52.138;5.440;2024-03-02T11:12:29;100150.31;;;10.20;64.59
80184;BME280;69682;52.138;5.440;2024-03-02T11:14:58;100144.53;;;10.27;63.66
80184;BME280;69682;52.138;5.440;2024-03-02T11:17:25;100139.09;;;10.38;62.95
80184;BME280;69682;52.138;5.440;2024-03-02T11:19:52;100151.03;;;10.43;62.01
80184;BME280;69682;52.138;5.440;2024-03-02T11:22:20;100147.28;;;10.46;61.32
80184;BME280;69682;52.138;5.440;2024-03-02T11:24:48;100149.38;;;10.42;61.91
80184;BME280;69682;52.138;5.440;2024-03-02T11:33:03;100149.13;;;10.86;61.14
80184;BME280;69682;52.138;5.440;2024-03-02T11:35:35;100154.22;;;11.08;60.50
80184;BME280;69682;52.138;5.440;2024-03-02T11:38:01;100138.66;;;11.13;59.27
80184;BME280;69682;52.138;5.440;2024-03-02T11:40:29;100140.38;;;11.24;61.57
80184;BME280;69682;52.138;5.440;2024-03-02T11:42:57;100134.31;;;11.32;59.31
80184;BME280;69682;52.138;5.440;2024-03-02T11:45:28;100127.59;;;11.37;58.60
80184;BME280;69682;52.138;5.440;2024-03-02T11:48:00;100127.44;;;11.29;58.89
80184;BME280;69682;52.138;5.440;2024-03-02T11:52:58;100122.41;;;11.55;57.90
80184;BME280;69682;52.138;5.440;2024-03-02T11:55:25;100114.97;;;11.59;57.29
80184;BME280;69682;52.138;5.440;2024-03-02T11:57:52;100111.31;;;11.60;57.34
80184;BME280;69682;52.138;5.440;2024-03-02T12:00:20;100116.78;;;11.78;57.07
80184;BME280;69682;52.138;5.440;2024-03-02T12:03:04;100122.28;;;11.86;57.10
80184;BME280;69682;52.138;5.440;2024-03-02T12:05:31;100113.00;;;11.71;56.64
80184;BME280;69682;52.138;5.440;2024-03-02T12:08:00;100112.72;;;12.03;56.71
80184;BME280;69682;52.138;5.440;2024-03-02T12:10:27;100106.94;;;11.98;57.20
80184;BME280;69682;52.138;5.440;2024-03-02T12:13:01;100099.91;;;12.07;56.89
80184;BME280;69682;52.138;5.440;2024-03-02T12:15:30;100102.56;;;12.07;56.00
80184;BME280;69682;52.138;5.440;2024-03-02T12:18:00;100098.34;;;12.04;56.27
80184;BME280;69682;52.138;5.440;2024-03-02T12:20:28;100097.06;;;12.08;55.39
80184;BME280;69682;52.138;5.440;2024-03-02T12:22:58;100089.59;;;12.21;55.97
80184;BME280;69682;52.138;5.440;2024-03-02T12:25:26;100091.25;;;12.22;56.15
80184;BME280;69682;52.138;5.440;2024-03-02T12:28:08;100091.16;;;12.52;55.58
80184;BME280;69682;52.138;5.440;2024-03-02T12:30:35;100085.75;;;12.61;56.18
80184;BME280;69682;52.138;5.440;2024-03-02T12:33:17;100083.34;;;12.68;56.09
80184;BME280;69682;52.138;5.440;2024-03-02T12:35:45;100077.84;;;12.42;55.58
80184;BME280;69682;52.138;5.440;2024-03-02T12:38:12;100080.75;;;12.21;56.06
80184;BME280;69682;52.138;5.440;2024-03-02T12:40:51;100083.13;;;12.24;56.88
80184;BME280;69682;52.138;5.440;2024-03-02T12:43:21;100077.97;;;12.13;56.14
80184;BME280;69682;52.138;5.440;2024-03-02T12:45:49;100071.38;;;12.07;56.07
80184;BME280;69682;52.138;5.440;2024-03-02T12:48:31;100073.03;;;12.18;56.77
80184;BME280;69682;52.138;5.440;2024-03-02T12:50:58;100069.31;;;12.28;56.32
80184;BME280;69682;52.138;5.440;2024-03-02T12:53:25;100056.59;;;12.13;55.78
80184;BME280;69682;52.138;5.440;2024-03-02T12:56:04;100062.53;;;12.07;56.33
80184;BME280;69682;52.138;5.440;2024-03-02T12:58:39;100049.75;;;12.00;56.41
80184;BME280;69682;52.138;5.440;2024-03-02T13:01:22;100050.34;;;11.94;56.10
80184;BME280;69682;52.138;5.440;2024-03-02T13:03:49;100052.50;;;12.09;56.93
80184;BME280;69682;52.138;5.440;2024-03-02T13:06:19;100063.38;;;12.35;56.75
80184;BME280;69682;52.138;5.440;2024-03-02T13:08:59;100053.63;;;12.43;56.07
80184;BME280;69682;52.138;5.440;2024-03-02T13:11:26;100062.66;;;12.42;56.21
80184;BME280;69682;52.138;5.440;2024-03-02T13:13:52;100052.22;;;12.21;56.01
80184;BME280;69682;52.138;5.440;2024-03-02T13:16:19;100053.09;;;12.40;56.60
80184;BME280;69682;52.138;5.440;2024-03-02T13:19:11;100056.00;;;12.46;56.16